createdAt,value
2019-01-09T00:01:56.369Z,54.43
2019-01-09T00:04:26.035Z,61.00
2019-01-09T00:06:55.731Z,58.33
2019-01-09T00:09:25.447Z,61.80
2019-01-09T00:11:55.133Z,62.27
2019-01-09T00:14:24.862Z,63.00
2019-01-09T00:16:54.514Z,56.27
2019-01-09T00:19:24.207Z,60.83
2019-01-09T00:21:53.907Z,57.40
2019-01-09T00:24:23.644Z,58.17
2019-01-09T00:26:53.555Z,55.37
2019-01-09T00:29:23.255Z,59.03
2019-01-09T00:31:52.947Z,58.03
2019-01-09T00:34:22.631Z,56.13
2019-01-09T00:36:52.290Z,56.97
2019-01-09T00:39:22.014Z,51.83
2019-01-09T00:41:51.795Z,62.07
2019-01-09T00:44:21.470Z,55.50
2019-01-09T00:46:51.167Z,52.93
2019-01-09T00:49:20.927Z,53.57
2019-01-09T00:51:50.595Z,55.70
2019-01-09T00:54:20.274Z,54.40
2019-01-09T00:56:50.100Z,55.53
2019-01-09T00:59:20.044Z,54.40
2019-01-09T01:02:01.383Z,54.97
2019-01-09T01:05:17.568Z,53.63
2019-01-09T01:08:23.115Z,51.07
2019-01-09T01:11:17.895Z,55.53
2019-01-09T01:14:42.112Z,54.97
2019-01-09T01:18:10.758Z,51.73
2019-01-09T01:21:09.327Z,47.90
2019-01-09T01:24:31.984Z,51.47
2019-01-09T01:27:23.450Z,49.97
2019-01-09T01:30:15.429Z,50.73
2019-01-09T01:33:29.044Z,51.30
2019-01-09T01:36:54.493Z,48.40
2019-01-09T01:40:08.301Z,49.47
2019-01-09T01:43:13.341Z,49.57
2019-01-09T01:45:56.277Z,51.37
2019-01-09T01:49:09.857Z,51.60
2019-01-09T01:52:35.764Z,52.40
2019-01-09T01:55:39.794Z,49.77
2019-01-09T01:58:28.823Z,49.67
2019-01-09T02:01:38.654Z,54.70
2019-01-09T02:04:41.730Z,52.37
2019-01-09T02:07:56.369Z,50.47
2019-01-09T02:11:08.941Z,51.77
2019-01-09T02:14:26.647Z,50.47
2019-01-09T02:17:46.086Z,53.30
2019-01-09T02:20:59.581Z,50.47
2019-01-09T02:24:28.106Z,49.17
2019-01-09T02:27:27.326Z,54.60
2019-01-09T02:30:31.637Z,51.67
2019-01-09T02:33:01.703Z,52.63
2019-01-09T02:35:31.413Z,52.50
2019-01-09T02:38:01.076Z,49.40
2019-01-09T02:40:30.755Z,54.60
2019-01-09T02:43:00.426Z,50.53
2019-01-09T02:45:30.161Z,51.70
2019-01-09T02:47:59.883Z,52.27
2019-01-09T02:50:29.603Z,49.07
2019-01-09T02:52:59.397Z,51.70
2019-01-09T02:55:29.077Z,54.93
2019-01-09T02:57:58.833Z,51.20
2019-01-09T03:00:28.488Z,51.57
2019-01-09T03:02:58.164Z,46.00
2019-01-09T03:05:27.858Z,49.53
2019-01-09T03:07:57.548Z,52.20
2019-01-09T03:10:27.250Z,52.90
2019-01-09T03:12:56.912Z,52.57
2019-01-09T03:15:26.685Z,52.53
2019-01-09T03:17:56.395Z,55.60
2019-01-09T03:20:26.068Z,49.07
2019-01-09T03:22:55.722Z,44.93
2019-01-09T03:25:25.427Z,49.50
2019-01-09T03:27:55.084Z,48.63
2019-01-09T03:30:24.750Z,51.63
2019-01-09T03:32:54.481Z,52.93
2019-01-09T03:35:24.177Z,48.30
2019-01-09T03:37:53.911Z,45.97
2019-01-09T03:40:23.565Z,45.07
2019-01-09T03:42:53.245Z,44.93
2019-01-09T03:45:22.952Z,48.17
2019-01-09T03:47:52.645Z,47.47
2019-01-09T03:50:22.321Z,48.67
2019-01-09T03:52:51.998Z,45.97
2019-01-09T03:55:21.742Z,49.97
2019-01-09T03:57:51.397Z,46.17
2019-01-09T04:00:21.330Z,51.50
2019-01-09T04:02:51.038Z,52.83
2019-01-09T04:05:20.859Z,49.13
2019-01-09T04:07:50.539Z,49.97
2019-01-09T04:10:20.202Z,50.33
2019-01-09T04:12:49.916Z,50.33
2019-01-09T04:15:19.692Z,46.03
2019-01-09T04:17:49.387Z,49.10
2019-01-09T04:20:19.118Z,51.50
2019-01-09T04:22:49.110Z,50.20
2019-01-09T04:25:20.559Z,54.53
2019-01-09T04:27:50.253Z,53.20
2019-01-09T04:30:19.969Z,49.63
2019-01-09T04:32:49.622Z,52.03
2019-01-09T04:35:19.311Z,53.03
2019-01-09T04:37:48.989Z,52.73
2019-01-09T04:40:18.671Z,50.50
2019-01-09T04:42:48.378Z,48.50
2019-01-09T04:45:18.038Z,49.77
2019-01-09T04:47:47.723Z,51.20
2019-01-09T04:50:17.431Z,55.00
2019-01-09T04:52:47.140Z,50.00
2019-01-09T04:55:16.837Z,53.87
2019-01-09T04:57:46.524Z,49.87
2019-01-09T05:00:16.526Z,55.87
2019-01-09T05:02:46.199Z,53.70
2019-01-09T05:05:15.876Z,53.50
2019-01-09T05:07:45.603Z,52.80
2019-01-09T05:10:15.279Z,51.87
2019-01-09T05:12:44.974Z,58.47
2019-01-09T05:15:14.670Z,141.60
2019-01-09T05:17:44.406Z,69.63
2019-01-09T05:20:14.072Z,61.13
2019-01-09T05:22:43.744Z,60.80
2019-01-09T05:25:13.422Z,65.33
2019-01-09T05:27:43.135Z,72.73
2019-01-09T05:30:12.880Z,77.47
2019-01-09T05:32:42.560Z,75.63
2019-01-09T05:35:12.202Z,68.00
2019-01-09T05:37:41.911Z,86.10
2019-01-09T05:40:11.623Z,73.50
2019-01-09T05:42:41.290Z,70.00
2019-01-09T05:45:11.034Z,64.43
2019-01-09T05:47:40.693Z,81.63
2019-01-09T05:50:10.491Z,96.57
2019-01-09T05:52:40.614Z,81.63
2019-01-09T05:55:10.922Z,72.47
2019-01-09T05:57:42.092Z,80.40
2019-01-09T06:00:11.774Z,82.53
2019-01-09T06:02:41.461Z,64.50
2019-01-09T06:05:11.203Z,93.97
2019-01-09T06:07:40.877Z,95.40
2019-01-09T06:10:12.637Z,78.57
2019-01-09T06:12:42.299Z,112.50
2019-01-09T06:15:11.983Z,94.30
2019-01-09T06:17:41.707Z,75.70
2019-01-09T06:20:11.397Z,74.50
2019-01-09T06:22:41.086Z,74.30
2019-01-09T06:25:10.873Z,79.57
2019-01-09T06:27:40.575Z,76.37
2019-01-09T06:30:10.272Z,81.87
2019-01-09T06:32:40.033Z,71.33
2019-01-09T06:35:09.722Z,75.30
2019-01-09T06:37:39.415Z,83.43
2019-01-09T06:40:09.222Z,90.33
2019-01-09T06:42:38.903Z,91.17
2019-01-09T06:45:08.708Z,101.23
2019-01-09T06:47:38.409Z,86.67
2019-01-09T06:50:12.279Z,75.40
2019-01-09T06:52:41.995Z,94.73
2019-01-09T06:55:13.320Z,130.07
2019-01-09T06:57:42.961Z,84.80
2019-01-09T07:00:12.730Z,83.60
2019-01-09T07:02:42.419Z,87.77
2019-01-09T07:05:12.111Z,89.07
2019-01-09T07:07:41.814Z,80.07
2019-01-09T07:10:11.523Z,102.03
2019-01-09T07:12:41.226Z,124.40
2019-01-09T07:15:11.553Z,78.40
2019-01-09T07:17:42.210Z,87.70
2019-01-09T07:20:11.866Z,99.60
2019-01-09T07:22:41.584Z,104.47
2019-01-09T07:25:11.247Z,88.70
2019-01-09T07:27:40.928Z,105.77
2019-01-09T07:30:11.390Z,91.87
2019-01-09T07:32:41.102Z,105.23
2019-01-09T07:35:10.822Z,109.40
2019-01-09T07:37:45.407Z,84.80
2019-01-09T07:40:11.895Z,86.57
2019-01-09T07:42:41.559Z,90.23
2019-01-09T07:45:11.457Z,113.63
2019-01-09T07:47:41.169Z,108.50
2019-01-09T07:50:11.026Z,95.73
2019-01-09T07:52:40.691Z,72.60
2019-01-09T07:55:10.409Z,77.00
2019-01-09T07:57:40.127Z,83.27
2019-01-09T08:00:11.621Z,59.70
2019-01-09T08:02:41.315Z,59.70
2019-01-09T08:05:10.987Z,68.90
2019-01-09T08:07:40.694Z,76.53
2019-01-09T08:10:11.094Z,78.20
2019-01-09T08:12:40.831Z,73.00
2019-01-09T08:15:11.458Z,71.43
2019-01-09T08:17:41.107Z,62.77
2019-01-09T08:20:10.921Z,78.10
2019-01-09T08:22:40.648Z,75.37
2019-01-09T08:25:10.323Z,75.80
2019-01-09T08:27:40.013Z,57.77
2019-01-09T08:30:10.577Z,69.97
2019-01-09T08:32:40.242Z,58.70
2019-01-09T08:35:10.070Z,68.47
2019-01-09T08:37:39.744Z,69.30
2019-01-09T08:40:10.429Z,85.37
2019-01-09T08:42:40.163Z,80.00
2019-01-09T08:45:10.010Z,61.60
2019-01-09T08:47:39.672Z,94.47
2019-01-09T08:50:10.356Z,71.07
2019-01-09T08:52:40.111Z,72.43
2019-01-09T08:55:10.166Z,63.97
2019-01-09T08:57:39.883Z,63.73
2019-01-09T09:00:11.534Z,59.80
2019-01-09T09:02:41.227Z,56.07
2019-01-09T09:05:11.043Z,67.60
2019-01-09T09:07:40.831Z,59.70
2019-01-09T09:10:12.568Z,55.87
2019-01-09T09:12:42.285Z,52.07
2019-01-09T09:15:15.049Z,54.90
2019-01-09T09:17:44.749Z,64.47
2019-01-09T09:20:14.409Z,59.57
2019-01-09T09:22:44.114Z,55.10
2019-01-09T09:25:13.819Z,58.30
2019-01-09T09:27:44.438Z,52.03
2019-01-09T09:30:14.899Z,63.53
2019-01-09T09:32:44.593Z,56.50
2019-01-09T09:35:14.377Z,56.60
2019-01-09T09:37:44.056Z,60.10
2019-01-09T09:40:16.535Z,56.30
2019-01-09T09:42:46.203Z,62.80
2019-01-09T09:45:15.996Z,55.73
2019-01-09T09:47:45.694Z,58.27
2019-01-09T09:50:16.458Z,54.50
2019-01-09T09:52:47.409Z,53.30
2019-01-09T09:55:17.119Z,55.70
2019-01-09T09:57:46.799Z,57.10
2019-01-09T10:00:19.638Z,60.10
2019-01-09T10:02:49.338Z,55.73
2019-01-09T10:05:19.012Z,56.33
2019-01-09T10:07:49.832Z,54.53
2019-01-09T10:10:19.527Z,59.07
2019-01-09T10:12:49.222Z,54.73
2019-01-09T10:15:19.019Z,63.80
2019-01-09T10:17:48.702Z,61.93
2019-01-09T10:20:18.387Z,70.13
2019-01-09T10:22:48.641Z,71.17
2019-01-09T10:25:18.296Z,75.47
2019-01-09T10:27:47.947Z,72.97
2019-01-09T10:30:18.848Z,75.27
2019-01-09T10:32:48.518Z,118.00
2019-01-09T10:35:18.177Z,76.13
2019-01-09T10:37:49.261Z,73.30
2019-01-09T10:40:20.180Z,68.40
2019-01-09T10:42:49.945Z,68.47
2019-01-09T10:45:21.224Z,60.03
2019-01-09T10:47:50.896Z,68.97
2019-01-09T10:50:20.642Z,74.60
2019-01-09T10:52:50.334Z,65.97
2019-01-09T10:55:20.507Z,69.33
2019-01-09T10:57:50.175Z,61.73
2019-01-09T11:00:22.233Z,64.90
2019-01-09T11:02:51.995Z,56.60
2019-01-09T11:05:21.649Z,58.50
2019-01-09T11:07:51.345Z,57.80
2019-01-09T11:10:21.599Z,63.93
2019-01-09T11:12:51.446Z,66.63
2019-01-09T11:15:21.123Z,64.83
2019-01-09T11:17:50.802Z,63.13
2019-01-09T11:20:21.784Z,62.67
2019-01-09T11:22:53.381Z,60.63
2019-01-09T11:25:28.181Z,62.67
2019-01-09T11:27:57.952Z,56.93
2019-01-09T11:30:27.650Z,58.30
2019-01-09T11:32:57.319Z,57.20
2019-01-09T11:35:27.349Z,56.90
2019-01-09T11:37:57.039Z,65.50
2019-01-09T11:40:26.834Z,67.03
2019-01-09T11:42:56.555Z,57.00
2019-01-09T11:45:26.267Z,70.23
2019-01-09T11:47:55.966Z,63.33
2019-01-09T11:50:25.858Z,64.17
2019-01-09T11:52:55.591Z,60.70
2019-01-09T11:55:25.271Z,64.67
2019-01-09T11:57:54.946Z,64.83
2019-01-09T12:00:26.897Z,59.17
2019-01-09T12:02:56.690Z,65.57
2019-01-09T12:05:26.559Z,59.97
2019-01-09T12:07:56.311Z,75.63
2019-01-09T12:10:30.233Z,61.27
2019-01-09T12:12:57.974Z,61.57
2019-01-09T12:15:27.638Z,54.80
2019-01-09T12:17:57.296Z,60.10
2019-01-09T12:20:27.015Z,60.60
2019-01-09T12:22:56.702Z,59.83
2019-01-09T12:25:26.391Z,54.93
2019-01-09T12:27:56.109Z,54.63
2019-01-09T12:30:29.807Z,61.23
2019-01-09T12:32:59.555Z,57.80
2019-01-09T12:35:29.335Z,62.97
2019-01-09T12:37:59.039Z,57.10
2019-01-09T12:40:28.743Z,57.67
2019-01-09T12:42:58.440Z,56.67
2019-01-09T12:45:28.199Z,55.40
2019-01-09T12:47:57.933Z,51.90
2019-01-09T12:50:27.734Z,55.17
2019-01-09T12:52:57.500Z,55.27
2019-01-09T12:55:27.210Z,51.77
2019-01-09T12:57:57.634Z,55.97
2019-01-09T13:00:29.285Z,51.97
2019-01-09T13:02:59.070Z,79.60
2019-01-09T13:05:28.814Z,54.40
2019-01-09T13:07:58.508Z,56.60
2019-01-09T13:10:28.330Z,59.60
2019-01-09T13:12:58.055Z,73.30
2019-01-09T13:15:27.750Z,53.53
2019-01-09T13:17:57.487Z,78.37
2019-01-09T13:20:27.201Z,66.50
2019-01-09T13:22:56.931Z,61.50
2019-01-09T13:25:27.615Z,72.80
2019-01-09T13:27:57.308Z,91.60
2019-01-09T13:30:27.014Z,68.83
2019-01-09T13:32:57.694Z,59.70
2019-01-09T13:35:27.398Z,51.73
2019-01-09T13:37:57.096Z,67.90
2019-01-09T13:40:26.827Z,55.63
2019-01-09T13:42:56.587Z,77.40
2019-01-09T13:45:26.274Z,64.43
2019-01-09T13:47:55.955Z,52.07
2019-01-09T13:50:25.683Z,88.63
2019-01-09T13:52:55.360Z,67.57
2019-01-09T13:55:25.061Z,55.07
2019-01-09T13:57:54.782Z,55.73
2019-01-09T14:00:24.507Z,54.33
2019-01-09T14:02:54.186Z,61.37
2019-01-09T14:05:23.879Z,61.80
2019-01-09T14:07:53.548Z,58.17
2019-01-09T14:10:25.590Z,62.13
2019-01-09T14:12:55.321Z,68.70
2019-01-09T14:15:25.012Z,70.40
2019-01-09T14:17:54.739Z,63.27
2019-01-09T14:20:24.506Z,59.97
2019-01-09T14:22:54.164Z,59.87
2019-01-09T14:25:23.895Z,57.63
2019-01-09T14:27:53.595Z,53.53
2019-01-09T14:30:30.319Z,56.50
2019-01-09T14:33:00.005Z,57.50
2019-01-09T14:35:29.672Z,60.27
2019-01-09T14:38:01.060Z,54.60
2019-01-09T14:40:30.729Z,59.67
2019-01-09T14:43:00.495Z,60.50
2019-01-09T14:45:32.966Z,60.87
2019-01-09T14:48:02.626Z,55.40
2019-01-09T14:50:32.369Z,56.60
2019-01-09T14:53:02.047Z,114.47
2019-01-09T14:55:31.750Z,89.13
2019-01-09T14:58:01.443Z,106.27
2019-01-09T15:00:31.127Z,79.90
2019-01-09T15:03:00.832Z,130.67
2019-01-09T15:05:30.562Z,83.70
2019-01-09T15:08:00.251Z,91.83
2019-01-09T15:10:31.640Z,118.67
2019-01-09T15:13:01.826Z,89.60
2019-01-09T15:15:31.546Z,81.83
2019-01-09T15:18:01.241Z,75.67
2019-01-09T15:20:30.986Z,158.87
2019-01-09T15:23:00.645Z,77.47
2019-01-09T15:25:30.710Z,76.07
2019-01-09T15:28:01.039Z,75.60
2019-01-09T15:30:31.951Z,66.50
2019-01-09T15:33:02.646Z,73.30
2019-01-09T15:35:32.333Z,62.33
2019-01-09T15:38:02.024Z,59.50
2019-01-09T15:40:32.627Z,69.80
2019-01-09T15:43:02.283Z,65.97
2019-01-09T15:45:31.922Z,62.10
2019-01-09T15:48:01.835Z,69.83
2019-01-09T15:50:33.587Z,72.97
2019-01-09T15:53:03.453Z,73.27
2019-01-09T15:55:33.348Z,53.33
2019-01-09T15:58:03.017Z,52.87
2019-01-09T16:00:53.929Z,64.07
2019-01-09T16:03:23.643Z,68.83
2019-01-09T16:05:53.315Z,59.10
2019-01-09T16:08:25.237Z,61.10
2019-01-09T16:10:54.908Z,61.53
2019-01-09T16:13:26.001Z,148.10
2019-01-09T16:15:55.731Z,130.57
2019-01-09T16:18:25.498Z,108.90
2019-01-09T16:20:55.180Z,78.37
2019-01-09T16:23:24.922Z,73.27
2019-01-09T16:25:54.652Z,65.27
2019-01-09T16:28:24.926Z,62.10
2019-01-09T16:31:24.510Z,84.83
2019-01-09T16:33:54.205Z,63.23
2019-01-09T16:36:23.958Z,82.57
2019-01-09T16:38:53.727Z,81.53
2019-01-09T16:41:23.401Z,68.53
2019-01-09T16:43:55.321Z,60.07
2019-01-09T16:46:25.065Z,64.73
2019-01-09T16:48:54.736Z,66.30
2019-01-09T16:51:24.575Z,75.50
2019-01-09T16:53:54.257Z,95.47
2019-01-09T16:56:23.939Z,76.07
2019-01-09T16:58:53.767Z,83.97
2019-01-09T17:01:25.033Z,79.10
2019-01-09T17:03:56.333Z,69.60
2019-01-09T17:06:26.081Z,78.07
2019-01-09T17:08:57.139Z,69.27
2019-01-09T17:11:26.852Z,62.60
2019-01-09T17:13:56.572Z,65.57
2019-01-09T17:16:26.299Z,66.53
2019-01-09T17:18:57.008Z,62.57
2019-01-09T17:21:27.342Z,67.97
2019-01-09T17:23:57.023Z,62.73
2019-01-09T17:26:27.690Z,77.03
2019-01-09T17:28:57.394Z,73.33
2019-01-09T17:31:27.070Z,72.40
2019-01-09T17:33:56.786Z,70.47
2019-01-09T17:36:28.457Z,69.60
2019-01-09T17:38:58.245Z,82.87
2019-01-09T17:41:27.947Z,81.20
2019-01-09T17:43:57.962Z,81.97
2019-01-09T17:46:27.728Z,66.40
2019-01-09T17:48:59.301Z,105.77
2019-01-09T17:51:28.990Z,104.33
2019-01-09T17:53:58.666Z,79.00
2019-01-09T17:56:28.374Z,69.03
2019-01-09T17:58:58.108Z,87.57
2019-01-09T18:01:27.788Z,85.57
2019-01-09T18:03:57.527Z,131.47
2019-01-09T18:06:27.215Z,86.73
2019-01-09T18:08:56.918Z,76.93
2019-01-09T18:11:26.680Z,77.00
2019-01-09T18:13:56.426Z,76.73
2019-01-09T18:16:26.090Z,67.40
2019-01-09T18:18:55.873Z,72.93
2019-01-09T18:21:25.559Z,66.53
2019-01-09T18:23:55.231Z,71.97
2019-01-09T18:26:25.017Z,80.20
2019-01-09T18:28:54.825Z,75.10
2019-01-09T18:31:49.053Z,124.47
2019-01-09T18:34:38.311Z,76.30
2019-01-09T18:37:42.359Z,65.67
2019-01-09T18:40:48.413Z,66.40
2019-01-09T18:43:38.445Z,81.20
2019-01-09T18:46:47.706Z,121.50
2019-01-09T18:49:53.385Z,110.13
2019-01-09T18:52:51.120Z,106.47
2019-01-09T18:55:21.336Z,83.93
2019-01-09T18:57:51.047Z,63.13
2019-01-09T19:00:23.271Z,58.77
2019-01-09T19:02:54.450Z,60.50
2019-01-09T19:05:24.404Z,64.00
2019-01-09T19:07:54.214Z,82.93
2019-01-09T19:10:25.145Z,70.30
2019-01-09T19:12:54.939Z,65.83
2019-01-09T19:15:24.663Z,61.10
2019-01-09T19:17:54.397Z,78.97
2019-01-09T19:20:24.111Z,68.20
2019-01-09T19:22:54.399Z,73.63
2019-01-09T19:25:24.539Z,76.37
2019-01-09T19:27:54.211Z,69.50
2019-01-09T19:30:26.785Z,58.67
2019-01-09T19:32:56.619Z,59.97
2019-01-09T19:35:26.292Z,60.33
2019-01-09T19:37:56.016Z,60.87
2019-01-09T19:40:25.725Z,76.73
2019-01-09T19:42:55.496Z,67.50
2019-01-09T19:45:25.175Z,68.83
2019-01-09T19:47:55.024Z,75.40
2019-01-09T19:50:25.659Z,82.80
2019-01-09T19:52:55.667Z,76.83
2019-01-09T19:55:25.828Z,59.60
2019-01-09T19:57:55.676Z,59.73
2019-01-09T20:00:26.507Z,67.63
2019-01-09T20:02:56.333Z,62.97
2019-01-09T20:05:26.119Z,69.77
2019-01-09T20:07:57.626Z,67.63
2019-01-09T20:10:28.631Z,64.67
2019-01-09T20:12:59.060Z,65.93
2019-01-09T20:15:28.797Z,67.70
2019-01-09T20:17:58.748Z,59.83
2019-01-09T20:20:28.470Z,55.87
2019-01-09T20:22:58.239Z,58.27
2019-01-09T20:25:27.988Z,55.20
2019-01-09T20:27:57.865Z,59.63
2019-01-09T20:30:29.853Z,58.40
2019-01-09T20:32:59.559Z,71.10
2019-01-09T20:35:29.260Z,68.53
2019-01-09T20:37:58.927Z,76.97
2019-01-09T20:40:28.712Z,100.80
2019-01-09T20:42:58.844Z,130.07
2019-01-09T20:45:29.745Z,146.27
2019-01-09T20:47:59.901Z,107.43
2019-01-09T20:50:31.672Z,101.63
2019-01-09T20:53:01.362Z,121.80
2019-01-09T20:55:31.533Z,110.23
2019-01-09T20:58:01.355Z,113.07
2019-01-09T21:00:31.734Z,159.37
2019-01-09T21:03:04.575Z,73.13
2019-01-09T21:05:45.881Z,64.73
2019-01-09T21:08:15.644Z,80.00
2019-01-09T21:10:45.460Z,72.73
2019-01-09T21:13:15.132Z,74.00
2019-01-09T21:15:45.397Z,80.00
2019-01-09T21:18:15.122Z,76.37
2019-01-09T21:20:44.953Z,72.43
2019-01-09T21:23:14.827Z,85.10
2019-01-09T21:25:44.522Z,81.20
2019-01-09T21:28:20.999Z,73.80
2019-01-09T21:30:51.020Z,73.03
2019-01-09T21:33:22.901Z,72.80
2019-01-09T21:35:52.579Z,78.77
2019-01-09T21:38:22.270Z,76.33
2019-01-09T21:40:52.013Z,78.27
2019-01-09T21:43:21.715Z,82.83
2019-01-09T21:45:51.735Z,70.73
2019-01-09T21:48:21.484Z,65.90
2019-01-09T21:50:51.176Z,67.23
2019-01-09T21:53:21.244Z,59.50
2019-01-09T21:55:50.991Z,62.03
2019-01-09T21:58:20.803Z,63.90
2019-01-09T22:00:50.536Z,67.53
2019-01-09T22:03:20.222Z,65.53
2019-01-09T22:05:49.931Z,63.27
2019-01-09T22:08:19.790Z,69.83
2019-01-09T22:10:49.562Z,70.47
2019-01-09T22:13:19.250Z,71.73
2019-01-09T22:15:48.999Z,64.37
2019-01-09T22:18:18.740Z,60.67
2019-01-09T22:20:48.428Z,69.17
2019-01-09T22:23:20.651Z,66.47
2019-01-09T22:25:50.386Z,65.93
2019-01-09T22:28:20.609Z,77.20
2019-01-09T22:30:50.315Z,78.63
2019-01-09T22:33:20.015Z,70.13
2019-01-09T22:35:49.743Z,69.20
2019-01-09T22:38:19.430Z,63.73
2019-01-09T22:40:49.277Z,66.33
2019-01-09T22:43:18.960Z,73.17
2019-01-09T22:45:48.643Z,65.63
2019-01-09T22:48:18.378Z,64.37
2019-01-09T22:50:48.130Z,57.37
2019-01-09T22:53:17.815Z,57.80
2019-01-09T22:55:47.542Z,62.70
2019-01-09T22:58:17.303Z,60.73
2019-01-09T23:01:08.043Z,59.57
2019-01-09T23:03:38.327Z,124.23
2019-01-09T23:06:10.677Z,81.67
2019-01-09T23:08:40.714Z,84.30
2019-01-09T23:11:10.491Z,83.90
2019-01-09T23:13:40.451Z,77.83
2019-01-09T23:16:11.997Z,75.00
2019-01-09T23:18:41.870Z,69.63
2019-01-09T23:21:11.549Z,70.67
2019-01-09T23:23:41.379Z,166.97
2019-01-09T23:26:11.079Z,89.50
2019-01-09T23:28:40.780Z,70.77
2019-01-09T23:31:10.770Z,90.43
2019-01-09T23:33:40.521Z,77.37
2019-01-09T23:36:10.410Z,65.93
2019-01-09T23:38:40.154Z,144.93
2019-01-09T23:41:09.886Z,93.70
2019-01-09T23:43:39.563Z,71.70
2019-01-09T23:46:09.805Z,67.90
2019-01-09T23:48:39.491Z,91.47
2019-01-09T23:51:09.184Z,65.67
2019-01-09T23:53:38.855Z,81.53
2019-01-09T23:56:08.720Z,130.67
2019-01-09T23:58:38.393Z,89.50
